sensor_id;sensor_type;location;lat;lon;timestamp;pressure;altitude;pressure_sealevel;temperature;humidity
30614;BME280;17381;51.690;5.270;2022-07-19T00:19:11;101834.59;;;24.15;50.99
30614;BME280;17381;51.690;5.270;2022-07-19T00:22:33;101824.56;;;24.04;50.82
30614;BME280;17381;51.690;5.270;2022-07-19T00:25:29;101825.41;;;24.05;50.53
30614;BME280;17381;51.690;5.270;2022-07-19T00:28:44;101827.56;;;24.00;51.13
30614;BME280;17381;51.690;5.270;2022-07-19T00:34:55;101823.53;;;23.92;50.55
30614;BME280;17381;51.690;5.270;2022-07-19T00:38:20;101826.22;;;23.92;50.41
30614;BME280;17381;51.690;5.270;2022-07-19T00:41:28;101824.59;;;23.90;50.51
30614;BME280;17381;51.690;5.270;2022-07-19T00:45:00;101824.72;;;23.88;50.67
30614;BME280;17381;51.690;5.270;2022-07-19T00:48:08;101823.09;;;23.86;50.96
30614;BME280;17381;51.690;5.270;2022-07-19T00:51:05;101830.19;;;23.87;51.08
30614;BME280;17381;51.690;5.270;2022-07-19T00:54:26;101833.84;;;23.86;50.72
30614;BME280;17381;51.690;5.270;2022-07-19T00:57:33;101815.66;;;23.77;50.90
30614;BME280;17381;51.690;5.270;2022-07-19T01:00:51;101825.53;;;23.76;50.49
30614;BME280;17381;51.690;5.270;2022-07-19T01:04:07;101833.59;;;23.76;50.91
30614;BME280;17381;51.690;5.270;2022-07-19T01:07:13;101824.94;;;23.71;51.19
30614;BME280;17381;51.690;5.270;2022-07-19T01:10:27;101824.09;;;23.70;51.20
30614;BME280;17381;51.690;5.270;2022-07-19T01:14:02;101823.09;;;23.71;51.24
30614;BME280;17381;51.690;5.270;2022-07-19T01:17:06;101824.88;;;23.72;51.07
30614;BME280;17381;51.690;5.270;2022-07-19T01:20:21;101818.03;;;23.67;51.15
30614;BME280;17381;51.690;5.270;2022-07-19T01:23:54;101825.22;;;23.66;51.35
30614;BME280;17381;51.690;5.270;2022-07-19T01:27:11;101830.91;;;23.62;51.32
30614;BME280;17381;51.690;5.270;2022-07-19T01:30:37;101811.53;;;23.57;51.51
30614;BME280;17381;51.690;5.270;2022-07-19T01:33:46;101824.22;;;23.55;51.43
30614;BME280;17381;51.690;5.270;2022-07-19T01:37:11;101825.16;;;23.54;51.75
30614;BME280;17381;51.690;5.270;2022-07-19T01:40:25;101830.81;;;23.49;51.68
30614;BME280;17381;51.690;5.270;2022-07-19T01:43:39;101834.56;;;23.46;51.78
30614;BME280;17381;51.690;5.270;2022-07-19T01:46:37;101822.41;;;23.41;51.56
30614;BME280;17381;51.690;5.270;2022-07-19T01:49:41;101825.22;;;23.39;51.72
30614;BME280;17381;51.690;5.270;2022-07-19T01:52:54;101825.78;;;23.30;51.52
30614;BME280;17381;51.690;5.270;2022-07-19T01:56:58;101829.44;;;23.29;51.67
30614;BME280;17381;51.690;5.270;2022-07-19T01:59:35;101823.72;;;23.21;51.58
30614;BME280;17381;51.690;5.270;2022-07-19T02:02:37;101822.06;;;23.18;51.45
30614;BME280;17381;51.690;5.270;2022-07-19T02:05:51;101817.19;;;23.11;51.79
30614;BME280;17381;51.690;5.270;2022-07-19T02:08:46;101812.41;;;23.01;51.88
30614;BME280;17381;51.690;5.270;2022-07-19T02:11:44;101822.72;;;23.07;52.07
30614;BME280;17381;51.690;5.270;2022-07-19T02:15:10;101816.72;;;23.04;52.20
30614;BME280;17381;51.690;5.270;2022-07-19T02:18:15;101800.41;;;22.93;52.06
30614;BME280;17381;51.690;5.270;2022-07-19T02:21:33;101809.06;;;22.98;52.29
30614;BME280;17381;51.690;5.270;2022-07-19T02:24:56;101802.41;;;22.89;52.55
30614;BME280;17381;51.690;5.270;2022-07-19T02:28:01;101803.44;;;22.86;52.74
30614;BME280;17381;51.690;5.270;2022-07-19T02:31:20;101802.69;;;22.84;52.65
30614;BME280;17381;51.690;5.270;2022-07-19T02:34:33;101798.69;;;22.77;52.80
30614;BME280;17381;51.690;5.270;2022-07-19T02:37:53;101794.47;;;22.59;52.64
30614;BME280;17381;51.690;5.270;2022-07-19T02:41:14;101805.19;;;22.59;52.88
30614;BME280;17381;51.690;5.270;2022-07-19T02:44:16;101796.34;;;22.57;53.28
30614;BME280;17381;51.690;5.270;2022-07-19T02:47:43;101781.22;;;22.41;53.29
30614;BME280;17381;51.690;5.270;2022-07-19T02:50:45;101786.38;;;22.45;53.42
30614;BME280;17381;51.690;5.270;2022-07-19T02:54:03;101791.06;;;22.41;53.48
30614;BME280;17381;51.690;5.270;2022-07-19T02:57:16;101786.75;;;22.38;53.69
30614;BME280;17381;51.690;5.270;2022-07-19T03:00:34;101767.97;;;22.24;53.77
30614;BME280;17381;51.690;5.270;2022-07-19T03:03:50;101772.09;;;22.30;53.70
30614;BME280;17381;51.690;5.270;2022-07-19T03:10:01;101772.47;;;22.24;53.80
30614;BME280;17381;51.690;5.270;2022-07-19T03:13:06;101769.88;;;22.22;54.08
30614;BME280;17381;51.690;5.270;2022-07-19T03:16:08;101780.69;;;22.20;54.29
30614;BME280;17381;51.690;5.270;2022-07-19T03:19:21;101779.03;;;22.18;54.37
30614;BME280;17381;51.690;5.270;2022-07-19T03:22:44;101778.31;;;22.14;54.46
30614;BME280;17381;51.690;5.270;2022-07-19T03:25:43;101753.34;;;21.99;54.56
30614;BME280;17381;51.690;5.270;2022-07-19T03:28:36;101764.53;;;22.06;54.73
30614;BME280;17381;51.690;5.270;2022-07-19T03:32:00;101756.09;;;21.98;54.99
30614;BME280;17381;51.690;5.270;2022-07-19T03:35:24;101771.72;;;22.06;54.97
30614;BME280;17381;51.690;5.270;2022-07-19T03:38:26;101763.00;;;22.02;54.90
30614;BME280;17381;51.690;5.270;2022-07-19T03:41:22;101769.56;;;21.96;55.23
30614;BME280;17381;51.690;5.270;2022-07-19T03:44:41;101764.50;;;21.92;55.21
30614;BME280;17381;51.690;5.270;2022-07-19T03:47:54;101767.34;;;21.89;55.25
30614;BME280;17381;51.690;5.270;2022-07-19T03:50:57;101764.19;;;21.82;55.36
30614;BME280;17381;51.690;5.270;2022-07-19T03:54:05;101750.38;;;21.74;55.34
30614;BME280;17381;51.690;5.270;2022-07-19T03:57:03;101769.41;;;21.84;55.08
30614;BME280;17381;51.690;5.270;2022-07-19T04:00:20;101771.41;;;21.80;55.62
30614;BME280;17381;51.690;5.270;2022-07-19T04:04:02;101770.66;;;21.78;55.72
30614;BME280;17381;51.690;5.270;2022-07-19T04:07:01;101769.00;;;21.75;55.55
30614;BME280;17381;51.690;5.270;2022-07-19T04:10:36;101763.31;;;21.66;55.78
30614;BME280;17381;51.690;5.270;2022-07-19T04:14:07;101765.72;;;21.70;55.60
30614;BME280;17381;51.690;5.270;2022-07-19T04:20:07;101760.63;;;21.66;55.88
30614;BME280;17381;51.690;5.270;2022-07-19T04:23:02;101765.06;;;21.67;56.05
30614;BME280;17381;51.690;5.270;2022-07-19T04:26:05;101762.56;;;21.64;55.95
30614;BME280;17381;51.690;5.270;2022-07-19T04:29:23;101765.91;;;21.67;56.41
30614;BME280;17381;51.690;5.270;2022-07-19T04:32:19;101778.44;;;21.67;56.38
30614;BME280;17381;51.690;5.270;2022-07-19T04:35:21;101777.47;;;21.68;56.42
30614;BME280;17381;51.690;5.270;2022-07-19T04:38:28;101777.59;;;21.66;56.51
30614;BME280;17381;51.690;5.270;2022-07-19T04:41:35;101762.81;;;21.59;56.47
30614;BME280;17381;51.690;5.270;2022-07-19T04:48:05;101789.16;;;21.67;56.76
30614;BME280;17381;51.690;5.270;2022-07-19T04:55:03;101747.22;;;21.51;56.39
30614;BME280;17381;51.690;5.270;2022-07-19T05:13:42;101777.38;;;21.85;56.16
30614;BME280;17381;51.690;5.270;2022-07-19T05:21:03;101768.63;;;21.97;54.64
30614;BME280;17381;51.690;5.270;2022-07-19T05:35:23;101753.25;;;22.31;53.11
30614;BME280;17381;51.690;5.270;2022-07-19T05:41:39;101741.59;;;22.47;52.65
30614;BME280;17381;51.690;5.270;2022-07-19T05:44:35;101769.66;;;22.70;52.14
30614;BME280;17381;51.690;5.270;2022-07-19T05:47:29;101773.56;;;22.78;51.71
30614;BME280;17381;51.690;5.270;2022-07-19T05:50:31;101772.91;;;22.89;50.97
30614;BME280;17381;51.690;5.270;2022-07-19T05:53:39;101760.47;;;22.88;51.04
30614;BME280;17381;51.690;5.270;2022-07-19T05:57:13;101763.06;;;23.04;50.83
30614;BME280;17381;51.690;5.270;2022-07-19T06:00:36;101765.25;;;23.12;50.43
30614;BME280;17381;51.690;5.270;2022-07-19T06:03:56;101772.81;;;23.19;50.05
30614;BME280;17381;51.690;5.270;2022-07-19T06:38:23;101774.84;;;23.84;49.32
30614;BME280;17381;51.690;5.270;2022-07-19T06:41:16;101775.50;;;23.88;49.22
30614;BME280;17381;51.690;5.270;2022-07-19T06:44:09;101767.34;;;23.89;49.27
30614;BME280;17381;51.690;5.270;2022-07-19T06:46:57;101773.81;;;24.00;49.40
30614;BME280;17381;51.690;5.270;2022-07-19T06:49:29;101768.91;;;24.06;49.01
30614;BME280;17381;51.690;5.270;2022-07-19T06:52:19;101764.19;;;24.10;49.18
30614;BME280;17381;51.690;5.270;2022-07-19T06:55:11;101769.78;;;24.20;49.04
30614;BME280;17381;51.690;5.270;2022-07-19T06:58:14;101761.28;;;24.26;49.11
30614;BME280;17381;51.690;5.270;2022-07-19T07:01:08;101721.28;;;24.08;49.00
30614;BME280;17381;51.690;5.270;2022-07-19T07:04:02;101759.59;;;24.37;49.26
30614;BME280;17381;51.690;5.270;2022-07-19T07:06:45;101724.66;;;24.25;48.88
30614;BME280;17381;51.690;5.270;2022-07-19T07:09:52;101729.38;;;24.34;48.67
30614;BME280;17381;51.690;5.270;2022-07-19T07:12:52;101727.88;;;24.43;48.75
30614;BME280;17381;51.690;5.270;2022-07-19T07:16:04;101753.72;;;24.71;48.54
30614;BME280;17381;51.690;5.270;2022-07-19T07:19:04;101745.22;;;24.77;48.09
30614;BME280;17381;51.690;5.270;2022-07-19T07:21:57;101754.88;;;24.92;48.13
30614;BME280;17381;51.690;5.270;2022-07-19T07:24:52;101753.22;;;25.02;48.34
30614;BME280;17381;51.690;5.270;2022-07-19T07:27:51;101756.00;;;25.14;47.73
30614;BME280;17381;51.690;5.270;2022-07-19T07:30:42;101750.94;;;25.22;47.56
30614;BME280;17381;51.690;5.270;2022-07-19T07:33:27;101751.88;;;25.34;47.54
30614;BME280;17381;51.690;5.270;2022-07-19T07:36:09;101695.31;;;25.10;47.66
30614;BME280;17381;51.690;5.270;2022-07-19T07:38:58;101759.81;;;25.48;47.59
30614;BME280;17381;51.690;5.270;2022-07-19T07:41:54;101747.59;;;25.55;47.38
30614;BME280;17381;51.690;5.270;2022-07-19T07:44:48;101694.16;;;25.38;47.31
30614;BME280;17381;51.690;5.270;2022-07-19T07:47:44;101749.53;;;25.77;47.12
30614;BME280;17381;51.690;5.270;2022-07-19T07:50:41;101699.53;;;25.62;46.84
30614;BME280;17381;51.690;5.270;2022-07-19T07:53:30;101746.84;;;26.01;46.86
30614;BME280;17381;51.690;5.270;2022-07-19T07:56:14;101730.31;;;26.06;47.04
30614;BME280;17381;51.690;5.270;2022-07-19T07:59:02;101736.38;;;26.21;47.04
30614;BME280;17381;51.690;5.270;2022-07-19T08:01:59;101735.63;;;26.30;46.68
30614;BME280;17381;51.690;5.270;2022-07-19T08:04:54;101734.06;;;26.39;47.01
30614;BME280;17381;51.690;5.270;2022-07-19T08:07:47;101688.94;;;26.18;46.64
30614;BME280;17381;51.690;5.270;2022-07-19T08:10:40;101734.59;;;26.55;46.32
30614;BME280;17381;51.690;5.270;2022-07-19T08:13:33;101737.28;;;26.66;46.61
30614;BME280;17381;51.690;5.270;2022-07-19T08:16:54;101696.59;;;26.58;46.44
30614;BME280;17381;51.690;5.270;2022-07-19T08:19:40;101700.25;;;26.68;46.37
30614;BME280;17381;51.690;5.270;2022-07-19T08:22:37;101728.31;;;27.00;46.53
30614;BME280;17381;51.690;5.270;2022-07-19T08:25:30;101728.19;;;27.12;46.63
30614;BME280;17381;51.690;5.270;2022-07-19T08:28:25;101732.63;;;27.25;46.55
30614;BME280;17381;51.690;5.270;2022-07-19T08:31:37;101729.75;;;27.37;46.41
30614;BME280;17381;51.690;5.270;2022-07-19T08:34:30;101720.03;;;27.46;45.90
30614;BME280;17381;51.690;5.270;2022-07-19T08:37:26;101712.38;;;27.62;45.86
30614;BME280;17381;51.690;5.270;2022-07-19T08:40:28;101709.47;;;27.75;45.63
30614;BME280;17381;51.690;5.270;2022-07-19T08:43:35;101703.78;;;27.90;45.34
30614;BME280;17381;51.690;5.270;2022-07-19T08:46:33;101704.16;;;28.06;45.11
30614;BME280;17381;51.690;5.270;2022-07-19T08:49:26;101701.66;;;28.14;44.40
30614;BME280;17381;51.690;5.270;2022-07-19T08:52:43;101694.19;;;28.27;44.09
30614;BME280;17381;51.690;5.270;2022-07-19T08:55:38;101706.00;;;28.47;44.81
30614;BME280;17381;51.690;5.270;2022-07-19T08:58:54;101709.34;;;28.61;45.31
30614;BME280;17381;51.690;5.270;2022-07-19T09:01:41;101692.16;;;28.72;44.69
30614;BME280;17381;51.690;5.270;2022-07-19T09:04:46;101697.34;;;28.94;44.06
30614;BME280;17381;51.690;5.270;2022-07-19T09:08:29;101700.53;;;29.09;42.98
30614;BME280;17381;51.690;5.270;2022-07-19T09:11:50;101706.00;;;29.28;44.06
30614;BME280;17381;51.690;5.270;2022-07-19T09:14:37;101704.59;;;29.44;42.85
30614;BME280;17381;51.690;5.270;2022-07-19T09:17:18;101680.63;;;29.49;43.31
30614;BME280;17381;51.690;5.270;2022-07-19T09:19:51;101697.63;;;29.70;42.30
30614;BME280;17381;51.690;5.270;2022-07-19T09:22:24;101701.59;;;29.86;43.26
30614;BME280;17381;51.690;5.270;2022-07-19T09:25:00;101683.31;;;29.97;42.18
30614;BME280;17381;51.690;5.270;2022-07-19T09:28:04;101693.97;;;30.18;42.40
30614;BME280;17381;51.690;5.270;2022-07-19T09:30:55;101689.09;;;30.32;42.34
30614;BME280;17381;51.690;5.270;2022-07-19T09:33:57;101687.63;;;30.47;41.51
30614;BME280;17381;51.690;5.270;2022-07-19T09:36:56;101692.94;;;30.67;41.74
30614;BME280;17381;51.690;5.270;2022-07-19T09:40:06;101644.09;;;30.67;42.08
30614;BME280;17381;51.690;5.270;2022-07-19T09:42:58;101688.22;;;31.06;41.02
30614;BME280;17381;51.690;5.270;2022-07-19T09:45:54;101679.50;;;31.20;41.45
30614;BME280;17381;51.690;5.270;2022-07-19T09:48:45;101686.28;;;31.34;40.54
30614;BME280;17381;51.690;5.270;2022-07-19T09:51:20;101648.06;;;31.18;40.71
30614;BME280;17381;51.690;5.270;2022-07-19T09:53:49;101681.72;;;31.53;40.68
30614;BME280;17381;51.690;5.270;2022-07-19T09:56:19;101682.19;;;31.66;41.30
30614;BME280;17381;51.690;5.270;2022-07-19T09:58:48;101678.59;;;31.83;40.13
30614;BME280;17381;51.690;5.270;2022-07-19T10:01:20;101670.34;;;31.93;39.53
30614;BME280;17381;51.690;5.270;2022-07-19T10:03:48;101663.44;;;31.99;39.69
30614;BME280;17381;51.690;5.270;2022-07-19T10:06:17;101672.38;;;32.17;39.38
30614;BME280;17381;51.690;5.270;2022-07-19T10:08:49;101669.88;;;32.32;38.77
30614;BME280;17381;51.690;5.270;2022-07-19T10:11:17;101639.75;;;32.25;39.62
30614;BME280;17381;51.690;5.270;2022-07-19T10:13:43;101644.94;;;32.45;39.43
30614;BME280;17381;51.690;5.270;2022-07-19T10:16:15;101633.59;;;32.49;38.86
30614;BME280;17381;51.690;5.270;2022-07-19T10:19:08;101669.16;;;32.90;38.15
30614;BME280;17381;51.690;5.270;2022-07-19T10:21:43;101621.78;;;32.75;38.25
30614;BME280;17381;51.690;5.270;2022-07-19T10:32:46;101654.66;;;33.57;36.46
30614;BME280;17381;51.690;5.270;2022-07-19T10:35:34;101659.59;;;33.70;36.42
30614;BME280;17381;51.690;5.270;2022-07-19T10:38:14;101630.59;;;33.69;36.70
30614;BME280;17381;51.690;5.270;2022-07-19T10:40:54;101646.75;;;34.03;37.04
30614;BME280;17381;51.690;5.270;2022-07-19T10:50:53;101573.47;;;34.31;36.57
30614;BME280;17381;51.690;5.270;2022-07-19T10:56:38;101629.75;;;35.03;36.19
30614;BME280;17381;51.690;5.270;2022-07-19T10:59:40;101632.22;;;35.21;35.69
30614;BME280;17381;51.690;5.270;2022-07-19T11:02:27;101630.78;;;35.33;35.22
30614;BME280;17381;51.690;5.270;2022-07-19T11:05:05;101626.97;;;35.57;35.63
30614;BME280;17381;51.690;5.270;2022-07-19T11:07:55;101621.97;;;35.84;34.45
30614;BME280;17381;51.690;5.270;2022-07-19T11:10:30;101621.69;;;36.08;34.50
30614;BME280;17381;51.690;5.270;2022-07-19T11:13:02;101620.09;;;36.29;34.41
30614;BME280;17381;51.690;5.270;2022-07-19T11:15:31;101621.59;;;36.46;33.72
30614;BME280;17381;51.690;5.270;2022-07-19T11:18:24;101600.59;;;36.53;32.39
30614;BME280;17381;51.690;5.270;2022-07-19T11:21:03;101601.91;;;36.72;32.51
30614;BME280;17381;51.690;5.270;2022-07-19T11:23:51;101598.72;;;36.90;31.75
30614;BME280;17381;51.690;5.270;2022-07-19T11:26:29;101598.94;;;37.10;31.87
30614;BME280;17381;51.690;5.270;2022-07-19T11:29:03;101584.94;;;37.26;31.77
30614;BME280;17381;51.690;5.270;2022-07-19T11:31:48;101580.75;;;37.52;31.40
30614;BME280;17381;51.690;5.270;2022-07-19T11:34:22;101595.91;;;37.76;29.47
30614;BME280;17381;51.690;5.270;2022-07-19T11:37:00;101595.56;;;37.92;30.16
30614;BME280;17381;51.690;5.270;2022-07-19T11:39:53;101592.56;;;38.15;28.41
30614;BME280;17381;51.690;5.270;2022-07-19T11:42:57;101599.41;;;38.33;28.71
30614;BME280;17381;51.690;5.270;2022-07-19T11:45:29;101582.13;;;38.39;29.14
30614;BME280;17381;51.690;5.270;2022-07-19T11:48:08;101573.72;;;38.47;28.95
30614;BME280;17381;51.690;5.270;2022-07-19T11:53:34;101575.47;;;38.81;27.73
30614;BME280;17381;51.690;5.270;2022-07-19T11:56:05;101564.09;;;38.91;28.96
30614;BME280;17381;51.690;5.270;2022-07-19T11:58:43;101574.47;;;39.02;28.50
30614;BME280;17381;51.690;5.270;2022-07-19T12:01:30;101561.78;;;39.21;28.54
30614;BME280;17381;51.690;5.270;2022-07-19T12:06:45;101550.75;;;39.61;26.79
30614;BME280;17381;51.690;5.270;2022-07-19T12:09:19;101553.47;;;39.88;26.19
30614;BME280;17381;51.690;5.270;2022-07-19T12:12:15;101548.09;;;40.06;26.41
30614;BME280;17381;51.690;5.270;2022-07-19T12:14:44;101539.78;;;40.26;26.59
30614;BME280;17381;51.690;5.270;2022-07-19T12:17:20;101544.28;;;40.52;26.14
30614;BME280;17381;51.690;5.270;2022-07-19T12:20:07;101533.38;;;40.71;24.58
30614;BME280;17381;51.690;5.270;2022-07-19T12:22:39;101523.16;;;40.78;25.05
30614;BME280;17381;51.690;5.270;2022-07-19T12:25:07;101540.38;;;40.98;24.68
30614;BME280;17381;51.690;5.270;2022-07-19T12:27:37;101538.00;;;41.09;24.98
30614;BME280;17381;51.690;5.270;2022-07-19T12:30:36;101494.28;;;41.06;25.84
30614;BME280;17381;51.690;5.270;2022-07-19T12:45:24;101506.38;;;41.30;21.88
30614;BME280;17381;51.690;5.270;2022-07-19T12:48:06;101508.00;;;41.37;23.74
30614;BME280;17381;51.690;5.270;2022-07-19T12:50:44;101505.13;;;41.51;22.99
30614;BME280;17381;51.690;5.270;2022-07-19T12:53:18;101500.88;;;41.48;24.64
30614;BME280;17381;51.690;5.270;2022-07-19T12:55:57;101481.09;;;41.51;23.78
30614;BME280;17381;51.690;5.270;2022-07-19T12:58:29;101503.28;;;41.63;23.57
30614;BME280;17381;51.690;5.270;2022-07-19T13:01:16;101492.84;;;41.65;24.52
30614;BME280;17381;51.690;5.270;2022-07-19T13:03:45;101497.13;;;41.79;24.07
30614;BME280;17381;51.690;5.270;2022-07-19T13:06:25;101473.66;;;41.70;23.91
30614;BME280;17381;51.690;5.270;2022-07-19T13:09:08;101493.06;;;42.00;24.53
30614;BME280;17381;51.690;5.270;2022-07-19T13:11:51;101492.75;;;42.09;23.92
30614;BME280;17381;51.690;5.270;2022-07-19T13:14:50;101491.13;;;42.19;22.69
30614;BME280;17381;51.690;5.270;2022-07-19T13:17:22;101493.31;;;42.29;23.29
30614;BME280;17381;51.690;5.270;2022-07-19T13:20:00;101479.72;;;42.27;22.36
30614;BME280;17381;51.690;5.270;2022-07-19T13:22:43;101468.19;;;42.31;22.23
30614;BME280;17381;51.690;5.270;2022-07-19T13:25:14;101466.84;;;42.21;22.13
30614;BME280;17381;51.690;5.270;2022-07-19T13:27:47;101450.97;;;42.17;22.43
30614;BME280;17381;51.690;5.270;2022-07-19T13:30:16;101462.81;;;42.36;23.08
30614;BME280;17381;51.690;5.270;2022-07-19T13:32:57;101456.81;;;42.39;21.84
30614;BME280;17381;51.690;5.270;2022-07-19T13:43:18;101400.16;;;42.30;22.64
30614;BME280;17381;51.690;5.270;2022-07-19T13:46:26;101451.00;;;42.70;21.75
30614;BME280;17381;51.690;5.270;2022-07-19T13:49:20;101441.84;;;42.70;20.05
30614;BME280;17381;51.690;5.270;2022-07-19T13:56:17;101434.91;;;42.79;20.94
30614;BME280;17381;51.690;5.270;2022-07-19T14:03:31;101422.03;;;42.85;20.50
30614;BME280;17381;51.690;5.270;2022-07-19T15:03:28;101313.84;;;42.27;20.10
30614;BME280;17381;51.690;5.270;2022-07-19T16:22:49;101258.09;;;41.77;20.13
